Time;durP1;ratioP1;P1;durP2;ratioP2;P2;SDS_P1;SDS_P2;PMS_P1;PMS_P2;Temp;Humidity;BMP_temperature;BMP_pressure;BME280_temperature;BME280_humidity;BME280_pressure;Samples;Min_cycle;Max_cycle;Signal;HPM_P1;HPM_P2
2022/03/25 00:01:26;;;;;;;248.40;40.03;;;2.40;99.90;;;;;;6270238;22;20055;-73
2022/03/25 00:03:52;;;;;;;242.57;42.75;;;2.30;99.90;;;;;;6272124;22;20027;-73
2022/03/25 00:06:18;;;;;;;322.02;42.17;;;2.20;99.90;;;;;;6272502;22;20019;-73
2022/03/25 00:08:44;;;;;;;125.32;35.58;;;2.00;99.90;;;;;;6272010;22;20016;-73
2022/03/25 00:11:10;;;;;;;105.47;34.70;;;2.00;99.90;;;;;;6272626;22;20340;-76
2022/03/25 00:13:35;;;;;;;52.25;31.67;;;2.00;99.90;;;;;;6271742;22;20015;-79
2022/03/25 00:16:04;;;;;;;54.40;32.92;;;2.00;99.90;;;;;;6272262;22;20019;-73
2022/03/25 00:18:30;;;;;;;57.35;31.35;;;2.00;99.90;;;;;;6272144;22;20340;-73
2022/03/25 00:20:55;;;;;;;125.25;34.08;;;1.90;99.90;;;;;;6270052;22;20073;-79
2022/03/25 00:23:21;;;;;;;66.13;32.30;;;1.90;99.90;;;;;;6271619;22;20019;-74
2022/03/25 00:25:47;;;;;;;84.70;32.65;;;2.40;99.90;;;;;;6270247;22;20020;-75
2022/03/25 00:28:13;;;;;;;73.85;32.67;;;1.80;99.90;;;;;;6272234;22;20027;-74
2022/03/25 00:30:39;;;;;;;120.78;32.67;;;1.80;99.90;;;;;;6272708;22;20038;-74
2022/03/25 00:33:05;;;;;;;89.88;31.48;;;1.70;99.90;;;;;;6270171;22;20343;-73
2022/03/25 00:35:31;;;;;;;205.23;35.83;;;1.70;99.90;;;;;;6270095;22;20024;-74
2022/03/25 00:37:58;;;;;;;90.72;32.70;;;1.60;99.90;;;;;;6270455;22;20027;-73
2022/03/25 00:40:24;;;;;;;153.77;32.45;;;1.60;99.90;;;;;;6270237;22;20011;-72
2022/03/25 00:42:50;;;;;;;40.92;29.33;;;1.60;99.90;;;;;;6271917;22;20498;-75
2022/03/25 00:45:16;;;;;;;78.30;30.83;;;1.50;99.90;;;;;;6270627;22;20024;-74
2022/03/25 00:47:42;;;;;;;50.28;29.30;;;1.50;99.90;;;;;;6274111;22;20083;-73
2022/03/25 00:50:09;;;;;;;159.18;31.45;;;1.40;99.90;;;;;;6273670;22;20024;-73
2022/03/25 00:52:36;;;;;;;71.32;32.05;;;1.40;99.90;;;;;;6273866;22;20085;-73
2022/03/25 00:55:02;;;;;;;44.45;29.30;;;1.40;99.90;;;;;;6273734;22;20023;-73
2022/03/25 00:57:28;;;;;;;70.03;29.55;;;1.40;99.90;;;;;;6274051;22;20016;-75
2022/03/25 00:59:54;;;;;;;74.95;29.60;;;1.30;99.90;;;;;;6274407;22;20393;-73
2022/03/25 01:02:19;;;;;;;56.40;30.13;;;1.30;99.90;;;;;;6272189;22;20024;-73
2022/03/25 01:04:45;;;;;;;39.90;28.08;;;2.00;99.90;;;;;;6271976;22;20062;-73
2022/03/25 01:07:11;;;;;;;38.80;27.73;;;1.20;99.90;;;;;;6273895;22;20027;-72
2022/03/25 01:09:36;;;;;;;34.65;25.55;;;1.10;99.90;;;;;;6271909;22;20363;-73
2022/03/25 01:12:02;;;;;;;39.80;27.42;;;1.10;99.90;;;;;;6273500;22;20028;-73
2022/03/25 01:14:28;;;;;;;33.13;23.40;;;1.10;99.90;;;;;;6272015;22;20041;-72
2022/03/25 01:16:54;;;;;;;32.50;23.40;;;1.10;99.90;;;;;;6274109;22;20012;-73
2022/03/25 01:19:20;;;;;;;32.05;23.77;;;1.10;99.90;;;;;;6272091;22;20100;-73
2022/03/25 01:21:46;;;;;;;35.25;25.50;;;1.10;99.90;;;;;;6274022;22;20152;-74
2022/03/25 01:24:12;;;;;;;38.15;26.88;;;1.10;99.90;;;;;;6271944;22;20117;-73
2022/03/25 01:26:39;;;;;;;33.95;24.60;;;1.00;99.90;;;;;;6273126;22;20012;-72
2022/03/25 01:29:06;;;;;;;31.95;23.10;;;1.00;99.90;;;;;;6273486;22;20349;-72
2022/03/25 01:31:34;;;;;;;32.30;24.05;;;1.00;99.90;;;;;;6246384;22;20106;-72
2022/03/25 01:34:01;;;;;;;29.00;21.98;;;1.00;99.90;;;;;;6273312;22;20098;-73
2022/03/25 01:36:27;;;;;;;23.80;18.38;;;1.00;99.90;;;;;;6271394;22;20106;-73
2022/03/25 01:38:53;;;;;;;22.77;16.88;;;1.90;99.90;;;;;;6271664;22;20023;-73
2022/03/25 01:41:19;;;;;;;23.00;17.17;;;1.00;99.90;;;;;;6271171;22;20058;-74
2022/03/25 01:43:54;;;;;;;28.05;18.95;;;1.00;99.90;;;;;;6271613;22;20019;-74
2022/03/25 01:46:21;;;;;;;22.92;17.15;;;1.00;99.90;;;;;;6273056;22;20015;-73
2022/03/25 01:48:50;;;;;;;27.67;20.60;;;1.00;99.90;;;;;;6271363;22;20016;-73
2022/03/25 01:51:22;;;;;;;26.55;19.65;;;1.00;99.90;;;;;;6273148;22;20016;-76
2022/03/25 01:53:47;;;;;;;27.63;19.63;;;0.90;99.90;;;;;;6273155;22;20529;-73
2022/03/25 01:56:20;;;;;;;29.73;20.98;;;1.00;99.90;;;;;;6270901;22;20062;-72
2022/03/25 01:58:46;;;;;;;30.63;22.20;;;1.40;99.90;;;;;;6272402;22;20340;-77
2022/03/25 02:01:12;;;;;;;30.80;21.55;;;0.90;99.90;;;;;;6271497;22;20016;-72
2022/03/25 02:03:38;;;;;;;31.83;22.55;;;0.90;99.90;;;;;;6271407;22;20030;-72
2022/03/25 02:06:04;;;;;;;20.17;15.27;;;0.90;99.90;;;;;;6273200;22;20036;-72
2022/03/25 02:08:30;;;;;;;17.40;13.27;;;0.80;99.90;;;;;;6273397;22;20015;-72
2022/03/25 02:10:58;;;;;;;20.73;16.15;;;0.90;99.90;;;;;;6271525;22;20020;-72
2022/03/25 02:13:24;;;;;;;28.05;20.52;;;0.80;99.90;;;;;;6272957;22;20050;-72
2022/03/25 02:15:50;;;;;;;27.77;20.63;;;0.70;99.90;;;;;;6270559;22;20016;-73
2022/03/25 02:18:20;;;;;;;26.65;19.55;;;0.70;99.90;;;;;;6273207;22;20042;-73
2022/03/25 02:20:49;;;;;;;31.13;22.67;;;0.70;99.90;;;;;;6273267;22;20091;-74
2022/03/25 02:23:15;;;;;;;33.20;23.80;;;0.60;99.90;;;;;;6272987;22;20051;-73
2022/03/25 02:25:42;;;;;;;28.55;20.58;;;0.50;99.90;;;;;;6272667;22;20027;-75
2022/03/25 02:28:08;;;;;;;28.25;20.70;;;0.60;99.90;;;;;;6272695;22;20042;-79
2022/03/25 02:30:36;;;;;;;27.52;20.05;;;0.50;99.90;;;;;;6272626;22;20453;-72
2022/03/25 02:33:04;;;;;;;34.53;22.17;;;0.50;99.90;;;;;;6270386;22;20019;-73
2022/03/25 02:35:47;;;;;;;31.90;22.87;;;0.50;99.90;;;;;;6272345;22;20020;-73
2022/03/25 02:38:19;;;;;;;29.55;20.88;;;0.40;99.90;;;;;;6272983;22;20356;-73
2022/03/25 02:40:45;;;;;;;27.95;20.10;;;0.40;99.90;;;;;;6273423;22;20012;-72
2022/03/25 02:43:12;;;;;;;29.83;20.30;;;0.40;99.90;;;;;;6270413;22;20022;-77
2022/03/25 02:45:38;;;;;;;31.30;20.80;;;0.30;99.90;;;;;;6272519;22;20020;-73
2022/03/25 02:48:05;;;;;;;31.58;22.20;;;0.30;99.90;;;;;;6270575;22;20467;-73
2022/03/25 02:50:31;;;;;;;30.50;21.92;;;0.30;99.90;;;;;;6271213;22;20016;-73
2022/03/25 02:53:00;;;;;;;24.55;18.88;;;0.20;99.90;;;;;;6273229;22;20154;-73
2022/03/25 02:55:26;;;;;;;28.08;20.67;;;0.20;99.90;;;;;;6271341;22;20085;-73
2022/03/25 02:57:53;;;;;;;24.80;17.98;;;0.20;99.90;;;;;;6272500;22;20022;-73
2022/03/25 03:00:20;;;;;;;29.15;21.00;;;0.20;99.90;;;;;;6272088;22;20012;-73
2022/03/25 03:02:47;;;;;;;27.57;19.93;;;0.10;99.90;;;;;;6272445;22;20015;-73
2022/03/25 03:05:13;;;;;;;28.30;19.98;;;0.10;99.90;;;;;;6272242;22;20019;-73
2022/03/25 03:07:39;;;;;;;23.70;17.50;;;0.10;99.90;;;;;;6272610;22;20027;-73
2022/03/25 03:10:05;;;;;;;22.60;16.67;;;0.10;99.90;;;;;;6272627;22;20015;-73
2022/03/25 03:12:32;;;;;;;29.43;20.80;;;0.10;99.90;;;;;;6272478;22;20073;-78
2022/03/25 03:14:59;;;;;;;29.95;20.88;;;0.00;99.90;;;;;;6270782;22;20017;-74
2022/03/25 03:17:25;;;;;;;29.02;21.17;;;0.00;99.90;;;;;;6273008;22;20019;-73
2022/03/25 03:19:50;;;;;;;31.40;21.27;;;0.00;99.90;;;;;;6271100;22;20727;-73
2022/03/25 03:22:17;;;;;;;29.20;20.57;;;-0.10;99.90;;;;;;6272821;22;20086;-74
2022/03/25 03:24:43;;;;;;;26.37;19.00;;;-0.10;99.90;;;;;;6271218;22;20449;-74
2022/03/25 03:27:10;;;;;;;29.50;19.93;;;-0.10;99.90;;;;;;6271308;22;20016;-73
2022/03/25 03:29:36;;;;;;;29.07;20.73;;;-0.10;99.90;;;;;;6272810;22;20054;-73
2022/03/25 03:32:02;;;;;;;28.03;19.83;;;-0.10;99.90;;;;;;6272149;22;20095;-72
2022/03/25 03:34:28;;;;;;;28.70;20.37;;;-0.10;99.90;;;;;;6272258;22;20024;-72
2022/03/25 03:36:54;;;;;;;27.87;19.50;;;-0.20;99.90;;;;;;6270462;22;20019;-73
2022/03/25 03:39:19;;;;;;;36.80;19.83;;;-0.10;99.90;;;;;;6271833;22;20409;-73
2022/03/25 03:41:45;;;;;;;37.20;24.20;;;-0.20;99.90;;;;;;6270476;22;20022;-74
2022/03/25 03:44:10;;;;;;;30.70;22.57;;;-0.30;99.90;;;;;;6270311;22;20028;-73
2022/03/25 03:46:36;;;;;;;28.90;21.43;;;-0.30;99.90;;;;;;6271359;22;20115;-73
2022/03/25 03:49:03;;;;;;;29.47;21.40;;;-0.30;99.90;;;;;;6270450;22;20401;-73
2022/03/25 03:51:28;;;;;;;28.73;20.80;;;-0.40;99.90;;;;;;6270337;22;20027;-75
2022/03/25 03:53:54;;;;;;;29.50;21.17;;;-0.40;99.90;;;;;;6272115;22;20459;-73
2022/03/25 03:56:20;;;;;;;29.97;22.03;;;-0.40;99.90;;;;;;6272276;22;20015;-73
2022/03/25 03:58:45;;;;;;;28.77;20.70;;;-0.40;99.90;;;;;;6270168;22;20030;-74
2022/03/25 04:01:11;;;;;;;31.57;21.73;;;-0.40;99.90;;;;;;6269701;22;20062;-73
2022/03/25 04:03:37;;;;;;;32.23;20.23;;;-0.40;99.90;;;;;;6270272;22;20445;-72
2022/03/25 04:06:03;;;;;;;35.27;21.10;;;-0.40;99.90;;;;;;6270293;22;20084;-73
2022/03/25 04:08:29;;;;;;;31.03;20.20;;;-0.40;99.90;;;;;;6271807;22;20016;-72
2022/03/25 04:10:55;;;;;;;29.23;20.27;;;-0.40;99.90;;;;;;6244082;22;20023;-72
2022/03/25 04:13:20;;;;;;;29.83;19.87;;;-0.40;99.90;;;;;;6269998;22;20137;-73
2022/03/25 04:15:46;;;;;;;29.23;19.40;;;-0.40;99.90;;;;;;6270382;22;20061;-74
2022/03/25 04:18:12;;;;;;;31.17;20.77;;;-0.40;99.90;;;;;;6271546;22;20012;-73
2022/03/25 04:20:37;;;;;;;29.03;19.53;;;-0.40;99.90;;;;;;6273013;22;20012;-72
2022/03/25 04:23:03;;;;;;;28.63;20.07;;;-0.50;99.90;;;;;;6272182;22;20027;-72
2022/03/25 04:25:29;;;;;;;28.23;19.27;;;-0.40;99.90;;;;;;6271994;22;20094;-72
2022/03/25 04:27:57;;;;;;;28.93;19.57;;;-0.40;99.90;;;;;;6273682;22;20012;-72
2022/03/25 04:30:28;;;;;;;30.73;19.90;;;-0.50;99.90;;;;;;6271951;22;20054;-73
2022/03/25 04:32:57;;;;;;;31.37;20.90;;;-0.50;99.90;;;;;;6273822;22;20352;-72
2022/03/25 04:35:24;;;;;;;30.90;20.40;;;-0.40;99.90;;;;;;6273339;22;20451;-72
2022/03/25 04:37:50;;;;;;;29.63;20.40;;;-0.40;99.90;;;;;;6273543;22;20062;-73
2022/03/25 04:40:18;;;;;;;30.27;21.17;;;-0.50;99.90;;;;;;6272208;22;20020;-73
2022/03/25 04:42:48;;;;;;;30.77;21.13;;;-0.40;99.90;;;;;;6273930;22;20069;-73
2022/03/25 04:45:15;;;;;;;29.97;20.97;;;-0.50;99.90;;;;;;6274233;22;20015;-73
2022/03/25 04:47:41;;;;;;;32.07;20.17;;;-0.50;99.90;;;;;;6273174;22;20019;-75
2022/03/25 04:50:08;;;;;;;32.63;20.77;;;-0.50;99.90;;;;;;6272057;22;20457;-72
2022/03/25 04:52:33;;;;;;;27.77;19.57;;;-0.50;99.90;;;;;;6273594;22;20464;-73
2022/03/25 04:54:59;;;;;;;34.63;20.33;;;-0.50;99.90;;;;;;6272099;22;20024;-73
2022/03/25 04:57:26;;;;;;;29.93;20.20;;;-0.50;99.90;;;;;;6274031;22;20097;-72
2022/03/25 04:59:51;;;;;;;32.23;20.07;;;-0.50;99.90;;;;;;6274117;22;20073;-73
2022/03/25 05:02:17;;;;;;;30.03;19.93;;;-0.50;99.90;;;;;;6271994;22;20530;-73
2022/03/25 05:04:43;;;;;;;27.77;19.13;;;-0.50;99.90;;;;;;6273252;22;20015;-73
2022/03/25 05:07:15;;;;;;;29.87;21.17;;;-0.50;99.90;;;;;;6271568;22;20016;-72
2022/03/25 05:09:41;;;;;;;28.73;19.70;;;-0.50;99.90;;;;;;6273244;22;20107;-72
2022/03/25 05:12:08;;;;;;;30.83;19.93;;;-0.50;99.90;;;;;;6273382;22;20078;-73
2022/03/25 05:14:34;;;;;;;27.27;18.47;;;-0.50;99.90;;;;;;6273275;22;20453;-72
2022/03/25 05:17:00;;;;;;;29.00;19.93;;;-0.50;99.90;;;;;;6273637;22;20016;-73
2022/03/25 05:19:26;;;;;;;30.33;20.00;;;-0.60;99.90;;;;;;6270986;22;20047;-73
2022/03/25 05:21:52;;;;;;;30.67;19.63;;;-0.60;99.90;;;;;;6271750;22;20016;-72
2022/03/25 05:24:17;;;;;;;29.87;19.67;;;-0.60;99.90;;;;;;6271432;22;20476;-73
2022/03/25 05:26:44;;;;;;;31.77;20.33;;;-0.60;99.90;;;;;;6273287;22;20388;-73
2022/03/25 05:29:09;;;;;;;32.83;21.17;;;-0.50;99.90;;;;;;6271259;22;20012;-73
2022/03/25 05:31:37;;;;;;;34.20;22.13;;;-0.50;99.90;;;;;;6273205;22;20352;-73
2022/03/25 05:34:04;;;;;;;37.83;22.93;;;-0.60;99.90;;;;;;6273379;22;20016;-73
2022/03/25 05:36:31;;;;;;;32.90;21.07;;;-0.50;99.90;;;;;;6271473;22;20019;-72
2022/03/25 05:38:58;;;;;;;31.73;20.97;;;-0.50;99.90;;;;;;6273531;22;20016;-72
2022/03/25 05:41:24;;;;;;;32.73;21.40;;;-0.50;99.90;;;;;;6273778;22;20432;-73
2022/03/25 05:43:51;;;;;;;34.93;22.07;;;-0.60;99.90;;;;;;6273572;22;20047;-74
2022/03/25 05:46:17;;;;;;;29.80;20.13;;;-0.50;99.90;;;;;;6273388;22;20023;-73
2022/03/25 05:48:43;;;;;;;26.90;18.07;;;-0.50;99.90;;;;;;6273461;22;20352;-72
2022/03/25 05:51:10;;;;;;;34.50;19.63;;;-0.50;99.90;;;;;;6270910;22;20020;-73
2022/03/25 05:53:36;;;;;;;32.73;19.37;;;-0.50;99.90;;;;;;6271360;22;20077;-72
2022/03/25 05:56:03;;;;;;;31.47;20.20;;;-0.50;99.90;;;;;;6273155;22;20457;-73
2022/03/25 05:58:35;;;;;;;36.03;21.20;;;-0.50;99.90;;;;;;6272865;22;20023;-72
2022/03/25 06:01:05;;;;;;;38.80;23.40;;;-0.40;99.90;;;;;;6273368;22;20030;-73
2022/03/25 06:03:32;;;;;;;46.97;24.13;;;-0.40;99.90;;;;;;6273511;22;20051;-72
2022/03/25 06:05:59;;;;;;;45.67;24.83;;;-0.40;99.90;;;;;;6272355;22;20023;-72
2022/03/25 06:08:27;;;;;;;40.73;25.10;;;-0.30;99.90;;;;;;6273107;22;20075;-72
2022/03/25 06:10:53;;;;;;;43.37;24.23;;;-0.30;99.90;;;;;;6271253;22;20019;-73
2022/03/25 06:13:19;;;;;;;34.80;21.30;;;-0.30;99.90;;;;;;6271259;22;20026;-74
2022/03/25 06:15:44;;;;;;;45.87;24.83;;;0.10;99.90;;;;;;6273296;22;20022;-75
2022/03/25 06:18:10;;;;;;;42.73;25.27;;;0.60;99.90;;;;;;6272423;22;20388;-73
2022/03/25 06:20:36;;;;;;;43.77;25.27;;;-0.20;99.90;;;;;;6245759;22;20073;-72
2022/03/25 06:23:02;;;;;;;42.40;23.53;;;-0.10;99.90;;;;;;6270486;22;20024;-73
2022/03/25 06:25:28;;;;;;;61.10;27.87;;;-0.10;99.90;;;;;;6272957;22;20011;-73
2022/03/25 06:27:56;;;;;;;54.00;27.03;;;0.10;99.90;;;;;;6272663;22;20075;-73
2022/03/25 06:30:24;;;;;;;68.53;26.83;;;0.10;99.90;;;;;;6272990;22;20098;-77
2022/03/25 06:32:51;;;;;;;48.87;26.17;;;0.20;99.90;;;;;;6270665;22;20027;-72
2022/03/25 06:35:17;;;;;;;55.60;27.93;;;0.30;99.90;;;;;;6270335;22;20015;-73
2022/03/25 06:37:43;;;;;;;63.53;28.33;;;0.30;99.90;;;;;;6272305;22;20031;-74
2022/03/25 06:40:11;;;;;;;54.97;27.60;;;0.40;99.90;;;;;;6270837;22;20092;-73
2022/03/25 06:42:38;;;;;;;59.90;26.03;;;0.50;99.90;;;;;;6272626;22;20016;-75
2022/03/25 06:45:05;;;;;;;61.10;27.57;;;0.60;99.90;;;;;;6272754;22;20016;-73
2022/03/25 06:47:30;;;;;;;52.53;26.03;;;0.70;99.90;;;;;;6272132;22;20043;-73
2022/03/25 06:49:56;;;;;;;59.30;27.23;;;0.70;99.90;;;;;;6270798;22;20026;-72
2022/03/25 06:52:23;;;;;;;62.77;30.17;;;0.80;99.90;;;;;;6272267;22;20020;-74
2022/03/25 06:54:49;;;;;;;52.00;27.40;;;0.90;99.90;;;;;;6272601;22;20026;-73
2022/03/25 06:57:15;;;;;;;51.27;27.20;;;1.00;99.90;;;;;;6272635;22;20336;-74
2022/03/25 06:59:42;;;;;;;52.77;26.83;;;1.10;99.90;;;;;;6272528;22;20722;-72
2022/03/25 07:02:11;;;;;;;60.70;29.70;;;1.20;99.90;;;;;;6272417;22;20435;-74
2022/03/25 07:04:38;;;;;;;56.70;29.73;;;1.30;99.90;;;;;;6272611;22;20077;-75
2022/03/25 07:07:05;;;;;;;61.33;32.37;;;1.40;99.90;;;;;;6270903;22;20026;-74
2022/03/25 07:09:31;;;;;;;53.50;31.08;;;1.50;99.90;;;;;;6271791;22;20065;-73
2022/03/25 07:11:58;;;;;;;67.25;33.63;;;1.70;99.90;;;;;;6272201;22;20031;-73
2022/03/25 07:14:24;;;;;;;68.93;33.17;;;1.80;99.90;;;;;;6270457;22;20123;-73
2022/03/25 07:16:49;;;;;;;64.47;33.75;;;1.90;99.90;;;;;;6272448;22;20081;-74
2022/03/25 07:19:15;;;;;;;63.50;33.40;;;2.10;99.90;;;;;;6272457;22;20023;-74
2022/03/25 07:21:41;;;;;;;59.10;33.40;;;2.30;99.90;;;;;;6270574;22;20174;-74
2022/03/25 07:24:07;;;;;;;72.88;38.10;;;2.30;99.90;;;;;;6271773;22;20078;-74
2022/03/25 07:26:32;;;;;;;70.50;36.65;;;2.60;99.90;;;;;;6269581;22;20019;-73
2022/03/25 07:28:58;;;;;;;66.20;34.33;;;2.70;99.90;;;;;;6244789;22;20012;-73
2022/03/25 07:31:28;;;;;;;75.50;35.53;;;2.90;99.90;;;;;;6272286;22;20042;-74
2022/03/25 07:33:57;;;;;;;67.97;35.03;;;3.10;99.90;;;;;;6272319;22;20027;-74
2022/03/25 07:36:23;;;;;;;67.90;33.13;;;3.30;99.90;;;;;;6272243;22;20027;-75
2022/03/25 07:38:50;;;;;;;67.18;35.03;;;3.50;99.90;;;;;;6270401;22;20409;-74
2022/03/25 07:41:16;;;;;;;68.82;32.58;;;3.70;99.90;;;;;;6270504;22;20120;-73
2022/03/25 07:43:42;;;;;;;60.03;31.90;;;3.90;99.90;;;;;;6272220;22;20047;-74
2022/03/25 07:46:07;;;;;;;55.78;31.10;;;4.00;99.90;;;;;;6272092;22;20030;-75
2022/03/25 07:48:33;;;;;;;58.45;30.00;;;4.20;99.90;;;;;;6272032;22;20024;-75
2022/03/25 07:50:59;;;;;;;53.30;29.00;;;4.50;99.90;;;;;;6272276;22;20026;-75
2022/03/25 07:53:24;;;;;;;52.40;28.95;;;4.60;99.90;;;;;;6244760;22;20023;-80
2022/03/25 07:55:51;;;;;;;49.63;27.73;;;4.80;99.90;;;;;;6270870;22;20015;-75
2022/03/25 07:58:21;;;;;;;56.95;28.90;;;5.00;99.90;;;;;;6274418;22;20023;-74
2022/03/25 08:00:48;;;;;;;50.90;29.02;;;5.10;99.90;;;;;;6246647;22;20030;-75
2022/03/25 08:03:16;;;;;;;56.03;28.90;;;5.50;99.90;;;;;;6274653;22;20341;-77
2022/03/25 08:05:45;;;;;;;52.38;27.70;;;5.60;99.90;;;;;;6273866;22;20034;-76
2022/03/25 08:08:11;;;;;;;59.97;28.15;;;5.70;99.90;;;;;;6274676;22;20091;-74
2022/03/25 08:10:40;;;;;;;50.85;26.95;;;5.90;99.90;;;;;;6272497;22;20047;-75
2022/03/25 08:13:07;;;;;;;49.25;25.40;;;6.10;99.90;;;;;;6274810;22;20489;-75
2022/03/25 08:15:34;;;;;;;44.50;24.25;;;6.30;99.90;;;;;;6274598;22;20336;-78
2022/03/25 08:18:19;;;;;;;47.80;24.50;;;6.50;99.90;;;;;;6273854;22;20016;-74
2022/03/25 08:20:47;;;;;;;54.40;24.52;;;6.70;99.90;;;;;;6274059;22;20024;-81
2022/03/25 08:28:48;;;;;;;47.22;25.08;;;7.40;99.90;;;;;;6274444;22;20024;-76
2022/03/25 08:31:15;;;;;;;41.17;24.55;;;7.60;99.90;;;;;;6274200;22;20011;-75
2022/03/25 08:33:42;;;;;;;40.20;24.50;;;7.80;99.90;;;;;;6273381;22;20023;-74
2022/03/25 08:36:07;;;;;;;41.03;22.08;;;8.00;99.90;;;;;;6273642;22;20019;-75
2022/03/25 08:38:33;;;;;;;43.10;23.77;;;8.10;99.90;;;;;;6274015;22;20023;-74
2022/03/25 08:40:59;;;;;;;37.60;22.10;;;8.30;99.90;;;;;;6273935;22;20086;-76
2022/03/25 08:43:25;;;;;;;38.55;20.80;;;8.50;99.90;;;;;;6273482;22;20015;-76
2022/03/25 08:45:50;;;;;;;41.65;21.30;;;8.70;99.90;;;;;;6272792;22;20019;-77
2022/03/25 08:48:16;;;;;;;36.30;21.15;;;9.10;99.90;;;;;;6274287;22;20016;-77
2022/03/25 08:50:42;;;;;;;35.95;21.58;;;9.30;99.90;;;;;;6272154;22;20429;-75
2022/03/25 08:53:07;;;;;;;39.80;21.38;;;9.60;99.90;;;;;;6273938;22;20016;-75
2022/03/25 08:55:33;;;;;;;37.15;21.58;;;10.00;99.90;;;;;;6274011;22;20095;-75
2022/03/25 08:57:59;;;;;;;38.20;20.58;;;10.30;99.90;;;;;;6273703;22;20395;-73
2022/03/25 09:00:25;;;;;;;36.90;20.73;;;10.60;99.90;;;;;;6274443;22;20012;-75
2022/03/25 09:02:51;;;;;;;31.25;19.40;;;11.20;99.90;;;;;;6274406;22;20380;-74
2022/03/25 09:05:17;;;;;;;41.75;21.65;;;11.10;99.90;;;;;;6247005;22;20103;-75
2022/03/25 09:07:43;;;;;;;32.03;18.30;;;11.40;99.90;;;;;;6273790;22;20051;-77
2022/03/25 09:10:14;;;;;;;27.95;17.42;;;11.50;99.90;;;;;;6273688;22;20088;-73
2022/03/25 09:12:41;;;;;;;34.60;18.17;;;11.60;99.90;;;;;;6271556;22;20087;-73
2022/03/25 09:15:08;;;;;;;35.17;17.30;;;11.80;99.90;;;;;;6273818;22;20093;-74
2022/03/25 09:17:34;;;;;;;32.53;16.98;;;12.10;99.90;;;;;;6273447;22;20392;-74
2022/03/25 09:20:02;;;;;;;31.30;17.50;;;12.30;99.90;;;;;;6272252;22;20461;-77
2022/03/25 09:22:28;;;;;;;35.03;17.48;;;12.60;99.90;;;;;;6272372;22;20019;-76
2022/03/25 09:24:53;;;;;;;31.80;18.10;;;12.80;99.90;;;;;;6274180;22;20023;-80
2022/03/25 09:27:19;;;;;;;28.23;17.80;;;13.30;99.90;;;;;;6273838;22;20332;-75
2022/03/25 09:29:45;;;;;;;31.27;16.33;;;13.60;99.90;;;;;;6273440;22;20047;-74
2022/03/25 09:32:10;;;;;;;26.73;16.05;;;13.60;99.90;;;;;;6273299;22;20048;-77
2022/03/25 09:37:21;;;;;;;30.50;16.13;;;13.80;99.90;;;;;;6273201;22;20020;-74
2022/03/25 09:39:48;;;;;;;30.17;16.52;;;14.00;99.90;;;;;;6273370;22;20024;-76
2022/03/25 09:42:15;;;;;;;28.05;16.48;;;14.40;99.90;;;;;;6273727;22;20046;-76
2022/03/25 09:44:42;;;;;;;30.05;16.17;;;14.30;99.90;;;;;;6273511;22;20015;-75
2022/03/25 09:47:10;;;;;;;30.17;15.98;;;14.60;99.90;;;;;;6273314;22;20090;-76
2022/03/25 09:49:38;;;;;;;30.70;16.00;;;15.30;99.90;;;;;;6273148;22;20015;-76
2022/03/25 09:52:05;;;;;;;27.10;15.15;;;15.10;99.90;;;;;;6273480;22;20072;-76
2022/03/25 09:54:32;;;;;;;24.80;14.25;;;15.30;99.90;;;;;;6273340;22;20016;-76
2022/03/25 09:56:58;;;;;;;25.05;14.95;;;15.50;99.90;;;;;;6272980;22;20020;-77
2022/03/25 09:59:23;;;;;;;28.25;15.65;;;15.60;99.90;;;;;;6273272;22;20412;-76
2022/03/25 10:01:49;;;;;;;25.55;15.80;;;15.80;99.20;;;;;;6273688;22;20043;-77
2022/03/25 10:04:36;;;;;;;30.85;17.30;;;15.80;96.90;;;;;;6273190;22;20039;-77
2022/03/25 10:07:21;;;;;;;31.17;17.27;;;15.90;97.00;;;;;;6273464;22;20115;-77
2022/03/25 10:10:04;;;;;;;24.33;16.08;;;16.10;96.50;;;;;;6273400;22;20345;-74
2022/03/25 10:12:30;;;;;;;29.90;16.42;;;16.30;97.30;;;;;;6273314;22;20008;-77
2022/03/25 10:15:26;;;;;;;32.65;16.85;;;16.30;96.90;;;;;;6273050;22;20068;-77
2022/03/25 10:18:06;;;;;;;26.70;17.48;;;16.60;94.90;;;;;;6270844;22;20397;-77
2022/03/25 10:20:42;;;;;;;29.65;17.42;;;16.70;93.70;;;;;;6271199;22;20020;-76
2022/03/25 10:23:17;;;;;;;31.52;16.90;;;16.90;93.90;;;;;;6273135;22;20073;-76
2022/03/25 10:25:56;;;;;;;30.10;18.40;;;17.10;94.60;;;;;;6273312;22;20337;-77
2022/03/25 10:28:40;;;;;;;35.65;19.05;;;17.40;93.80;;;;;;6273184;22;20019;-77
2022/03/25 10:31:15;;;;;;;29.48;17.80;;;17.50;93.60;;;;;;6270888;22;20349;-78
2022/03/25 10:33:57;;;;;;;32.38;17.50;;;17.70;93.70;;;;;;6273039;22;20057;-77
2022/03/25 10:36:25;;;;;;;25.73;17.08;;;17.90;91.50;;;;;;6273436;22;20026;-77
2022/03/25 10:39:04;;;;;;;28.80;18.45;;;17.90;92.10;;;;;;6270455;22;20066;-78
2022/03/25 10:41:41;;;;;;;26.88;17.13;;;18.10;91.30;;;;;;6272766;22;20012;-78
2022/03/25 10:44:08;;;;;;;27.63;17.15;;;18.30;92.20;;;;;;6273099;22;20042;-78
2022/03/25 10:46:45;;;;;;;33.35;18.48;;;18.50;91.50;;;;;;6270384;22;20064;-81
2022/03/25 10:49:16;;;;;;;29.50;17.00;;;18.60;90.60;;;;;;6245845;22;20110;-78
2022/03/25 10:51:53;;;;;;;27.55;17.25;;;18.80;90.30;;;;;;6272993;22;20315;-77
2022/03/25 10:54:24;;;;;;;29.33;17.02;;;19.10;88.40;;;;;;6272508;22;20016;-77
2022/03/25 10:56:54;;;;;;;29.30;17.13;;;19.00;90.00;;;;;;6272654;22;20011;-77
2022/03/25 10:59:27;;;;;;;31.05;17.45;;;19.30;88.70;;;;;;6272846;22;20447;-78
2022/03/25 11:01:56;;;;;;;28.55;17.33;;;19.20;85.60;;;;;;6270595;22;20086;-78
2022/03/25 11:04:22;;;;;;;29.73;16.58;;;19.40;87.80;;;;;;6272782;22;20055;-79
2022/03/25 11:06:49;;;;;;;28.98;16.30;;;19.60;85.70;;;;;;6245424;22;20019;-77
2022/03/25 11:09:17;;;;;;;35.08;16.92;;;19.60;86.40;;;;;;6272837;22;20884;-78
2022/03/25 11:11:45;;;;;;;33.03;17.75;;;19.90;85.00;;;;;;6273009;22;20011;-77
2022/03/25 11:14:11;;;;;;;27.25;17.15;;;19.70;83.90;;;;;;6270737;22;20334;-82
2022/03/25 11:16:41;;;;;;;26.40;16.50;;;19.80;83.70;;;;;;6272597;22;20064;-79
2022/03/25 11:19:09;;;;;;;26.70;17.17;;;19.90;81.60;;;;;;6272671;22;20020;-79
2022/03/25 11:21:40;;;;;;;26.67;15.90;;;20.00;79.20;;;;;;6272943;22;20108;-77
2022/03/25 11:24:12;;;;;;;25.48;16.92;;;19.90;80.20;;;;;;6272855;22;20015;-78
2022/03/25 11:26:41;;;;;;;27.52;16.95;;;20.00;78.90;;;;;;6272872;22;20015;-80
2022/03/25 11:29:11;;;;;;;30.60;16.73;;;20.00;78.00;;;;;;6272726;22;20016;-79
2022/03/25 11:32:03;;;;;;;30.08;17.58;;;20.30;79.00;;;;;;6273169;22;20400;-79
2022/03/25 11:34:29;;;;;;;25.20;16.77;;;20.10;75.70;;;;;;6271838;22;20014;-79
2022/03/25 11:37:18;;;;;;;29.85;16.23;;;20.10;76.30;;;;;;6244616;22;20102;-77
2022/03/25 11:39:43;;;;;;;27.60;17.13;;;20.50;74.80;;;;;;6272554;22;20030;-78
2022/03/25 11:42:36;;;;;;;25.05;16.05;;;20.50;76.40;;;;;;6272202;22;20012;-78
2022/03/25 11:45:20;;;;;;;25.95;17.10;;;20.60;72.90;;;;;;6272528;22;20016;-80
2022/03/25 11:48:07;;;;;;;26.50;16.90;;;20.80;72.60;;;;;;6272119;22;20023;-77
2022/03/25 11:50:34;;;;;;;26.50;17.02;;;20.90;72.30;;;;;;6272583;22;20490;-79
2022/03/25 11:53:11;;;;;;;29.88;18.33;;;21.00;72.90;;;;;;6272412;22;20089;-79
2022/03/25 11:55:59;;;;;;;33.28;18.88;;;20.90;68.80;;;;;;6272405;22;20094;-79
2022/03/25 11:58:48;;;;;;;32.88;18.85;;;21.00;70.20;;;;;;6271195;22;20020;-78
2022/03/25 12:01:18;;;;;;;31.67;21.10;;;21.10;71.30;;;;;;6178234;23;20474;-82
2022/03/25 12:03:47;;;;;;;30.88;19.52;;;21.00;70.70;;;;;;6177910;23;20107;-79
2022/03/25 12:06:13;;;;;;;32.38;17.90;;;21.10;71.10;;;;;;6178175;23;20028;-77
2022/03/25 12:08:56;;;;;;;32.05;16.73;;;21.20;70.20;;;;;;6178249;23;20017;-79
2022/03/25 12:11:53;;;;;;;25.75;16.65;;;21.30;66.30;;;;;;6177875;22;20052;-77
2022/03/25 12:14:20;;;;;;;32.00;15.75;;;21.30;68.50;;;;;;6152809;23;20554;-77
2022/03/25 12:16:46;;;;;;;27.15;16.30;;;21.40;67.50;;;;;;6178201;23;20040;-75
2022/03/25 12:19:28;;;;;;;27.10;15.88;;;21.40;67.20;;;;;;6177629;23;20021;-77
2022/03/25 12:21:59;;;;;;;24.60;14.30;;;21.30;65.00;;;;;;6152922;23;20025;-76
2022/03/25 12:24:26;;;;;;;30.02;13.82;;;21.40;66.40;;;;;;6152878;23;20056;-78
2022/03/25 12:27:05;;;;;;;23.20;13.30;;;21.40;64.80;;;;;;6153177;23;20028;-76
2022/03/25 12:29:35;;;;;;;21.98;12.55;;;21.30;62.90;;;;;;6177877;23;20072;-74
2022/03/25 12:32:06;;;;;;;20.58;12.50;;;21.60;63.80;;;;;;6177832;23;20017;-77
2022/03/25 12:34:40;;;;;;;24.98;13.25;;;21.70;62.20;;;;;;6177586;23;20338;-76
2022/03/25 12:37:10;;;;;;;23.33;12.43;;;21.60;62.80;;;;;;6179397;22;20033;-81
2022/03/25 12:39:37;;;;;;;21.60;12.07;;;21.50;61.30;;;;;;6269982;22;20088;-79
2022/03/25 12:42:13;;;;;;;24.58;13.07;;;21.80;61.80;;;;;;6273034;22;20100;-82
2022/03/25 12:44:39;;;;;;;22.52;13.20;;;21.50;61.00;;;;;;6273839;22;20054;-78